Time;durP1;ratioP1;P1;durP2;ratioP2;P2;SDS_P1;SDS_P2;PMS_P1;PMS_P2;Temp;Humidity;BMP_temperature;BMP_pressure;BME280_temperature;BME280_humidity;BME280_pressure;Samples;Min_cycle;Max_cycle;Signal;HPM_P1;HPM_P2
2024/01/02 00:00:36;;;;;;;7.95;2.13;;;;;;;1.98;100.00;94335.34;5119198;28;20058;-88
2024/01/02 00:03:02;;;;;;;5.25;1.83;;;;;;;2.10;100.00;94325.09;5136343;27;20042;-87
2024/01/02 00:05:27;;;;;;;7.85;2.10;;;;;;;1.98;100.00;94327.59;5118857;28;20113;-87
2024/01/02 00:07:53;;;;;;;12.02;1.85;;;;;;;2.10;100.00;94327.66;5120026;27;20027;-88
2024/01/02 00:10:18;;;;;;;9.45;2.20;;;;;;;2.07;100.00;94335.84;5122807;27;20027;-88
2024/01/02 00:12:44;;;;;;;7.72;2.15;;;;;;;1.79;100.00;94326.78;5139514;27;20060;-88
2024/01/02 00:15:09;;;;;;;6.82;1.80;;;;;;;2.01;100.00;94336.72;5122801;27;20027;-88
2024/01/02 00:17:35;;;;;;;25.58;1.98;;;;;;;1.93;100.00;94340.34;5122670;27;20331;-88
2024/01/02 00:20:01;;;;;;;4.60;1.73;;;;;;;1.87;100.00;94336.03;5139423;27;20030;-88
2024/01/02 00:22:26;;;;;;;6.68;1.92;;;;;;;1.79;100.00;94331.94;5122797;27;20080;-88
2024/01/02 00:24:51;;;;;;;9.13;1.80;;;;;;;1.79;100.00;94334.53;5122639;27;20430;-88
2024/01/02 00:27:17;;;;;;;6.07;1.75;;;;;;;1.87;100.00;94338.63;5138949;27;20031;-88
2024/01/02 00:29:42;;;;;;;13.65;2.10;;;;;;;1.92;100.00;94340.59;5139132;27;20055;-88
2024/01/02 00:32:08;;;;;;;7.80;1.48;;;;;;;2.07;100.00;94335.06;5122519;27;20126;-88
2024/01/02 00:34:33;;;;;;;11.30;1.75;;;;;;;2.06;100.00;94330.88;5139405;27;20114;-88
2024/01/02 00:36:59;;;;;;;5.97;1.90;;;;;;;1.95;100.00;94340.16;5139042;27;20027;-88
2024/01/02 00:39:25;;;;;;;3.65;1.35;;;;;;;1.90;100.00;94338.19;5122369;27;20095;-88
2024/01/02 00:41:50;;;;;;;6.63;1.92;;;;;;;2.06;100.00;94339.44;5139370;27;20031;-88
2024/01/02 00:44:16;;;;;;;3.67;1.77;;;;;;;1.93;100.00;94345.53;5140399;27;20066;-88
2024/01/02 00:46:41;;;;;;;7.32;2.15;;;;;;;1.76;100.00;94337.53;5122328;27;20115;-88
2024/01/02 00:49:07;;;;;;;5.00;1.80;;;;;;;1.85;100.00;94340.63;5127946;27;20039;-88
2024/01/02 00:51:32;;;;;;;4.47;2.13;;;;;;;1.90;100.00;94329.69;5118415;28;20031;-88
2024/01/02 00:53:59;;;;;;;7.15;1.80;;;;;;;1.85;100.00;94335.47;5101582;28;20439;-88
2024/01/02 00:56:24;;;;;;;8.18;2.50;;;;;;;2.02;100.00;94334.91;5101707;28;20031;-88
2024/01/02 00:58:50;;;;;;;8.20;2.30;;;;;;;2.02;100.00;94324.59;5101685;28;20503;-88
2024/01/02 01:01:17;;;;;;;7.57;2.33;;;;;;;1.95;100.00;94328.03;5101449;28;20031;-88
2024/01/02 01:03:43;;;;;;;5.80;1.90;;;;;;;2.03;100.00;94321.78;5101638;28;20031;-88
2024/01/02 01:06:08;;;;;;;17.08;2.28;;;;;;;1.90;100.00;94325.28;5101347;28;20049;-88
2024/01/02 01:08:34;;;;;;;6.22;2.35;;;;;;;1.90;100.00;94327.09;5118188;28;20052;-88
2024/01/02 01:10:59;;;;;;;4.80;1.70;;;;;;;1.94;100.00;94323.06;5117804;28;20074;-88
2024/01/02 01:13:25;;;;;;;3.95;1.80;;;;;;;1.99;100.00;94328.38;5119225;28;20028;-88
2024/01/02 01:15:50;;;;;;;11.93;2.00;;;;;;;2.00;100.00;94332.53;5118216;28;20031;-88
2024/01/02 01:18:16;;;;;;;7.07;2.13;;;;;;;1.92;100.00;94335.41;5100757;28;20081;-88
2024/01/02 01:20:41;;;;;;;4.60;1.70;;;;;;;1.92;100.00;94328.44;5101179;28;20352;-88
2024/01/02 01:23:07;;;;;;;5.10;1.80;;;;;;;1.94;100.00;94334.22;5101060;28;20092;-88
2024/01/02 01:25:32;;;;;;;5.63;2.08;;;;;;;1.71;100.00;94334.78;5117589;28;20047;-88
2024/01/02 01:27:58;;;;;;;8.95;1.63;;;;;;;1.66;100.00;94329.47;5100891;28;20031;-87
2024/01/02 01:30:24;;;;;;;6.65;1.30;;;;;;;1.77;100.00;94333.16;5117655;28;20097;-88
2024/01/02 01:32:49;;;;;;;5.85;1.52;;;;;;;1.71;100.00;94332.19;5100875;28;20028;-88
2024/01/02 01:35:15;;;;;;;6.72;1.50;;;;;;;1.94;100.00;94344.53;5117555;28;20039;-88
2024/01/02 01:37:40;;;;;;;5.22;1.25;;;;;;;1.91;100.00;94344.16;5100483;28;20034;-88
2024/01/02 01:40:06;;;;;;;4.60;1.13;;;;;;;1.90;100.00;94340.00;5117471;28;20031;-88
2024/01/02 01:42:31;;;;;;;5.47;1.42;;;;;;;1.87;100.00;94343.03;5117659;28;20059;-88
2024/01/02 01:44:57;;;;;;;4.18;1.00;;;;;;;2.01;100.00;94352.22;5100490;28;20064;-88
2024/01/02 01:47:23;;;;;;;4.68;1.35;;;;;;;2.06;100.00;94347.19;5100144;28;20063;-88
2024/01/02 01:49:48;;;;;;;4.93;1.30;;;;;;;1.97;100.00;94343.31;5133863;27;20035;-88
2024/01/02 01:52:14;;;;;;;6.28;1.33;;;;;;;1.81;100.00;94342.84;5137876;27;20038;-87
2024/01/02 01:54:40;;;;;;;1.73;0.93;;;;;;;1.72;100.00;94336.38;5137563;27;20131;-88
2024/01/02 01:57:05;;;;;;;3.25;1.30;;;;;;;1.87;100.00;94330.09;5148501;27;20157;-88
2024/01/02 01:59:32;;;;;;;3.40;1.05;;;;;;;1.81;100.00;94329.94;5141380;27;20023;-88
2024/01/02 02:01:57;;;;;;;3.30;1.40;;;;;;;1.75;100.00;94317.06;5135421;27;20065;-88
2024/01/02 02:04:23;;;;;;;6.90;1.20;;;;;;;1.70;100.00;94322.88;5123484;27;20043;-88
2024/01/02 02:06:49;;;;;;;4.47;1.08;;;;;;;1.78;100.00;94317.44;5139999;27;20426;-88
2024/01/02 02:09:14;;;;;;;4.30;1.50;;;;;;;1.79;100.00;94319.03;5119959;27;20118;-89
2024/01/02 02:11:40;;;;;;;5.95;1.67;;;;;;;1.72;100.00;94307.94;5112075;27;20031;-88
2024/01/02 02:14:05;;;;;;;6.40;1.63;;;;;;;1.54;100.00;94306.91;5111881;27;20031;-88
2024/01/02 02:16:31;;;;;;;4.95;1.50;;;;;;;1.66;100.00;94301.06;5130570;27;20038;-88
2024/01/02 02:18:56;;;;;;;3.47;1.45;;;;;;;1.91;100.00;94313.16;5105781;27;20089;-88
2024/01/02 02:21:22;;;;;;;5.40;1.48;;;;;;;1.99;100.00;94310.28;5116776;28;20057;-88
2024/01/02 02:23:47;;;;;;;6.72;1.90;;;;;;;1.88;100.00;94316.97;5100894;27;20389;-88
2024/01/02 02:26:13;;;;;;;4.00;1.42;;;;;;;1.72;100.00;94307.19;5149438;27;20035;-88
2024/01/02 02:28:38;;;;;;;6.03;1.92;;;;;;;1.73;100.00;94306.97;5157781;27;20462;-88
2024/01/02 02:31:04;;;;;;;3.83;1.40;;;;;;;1.80;100.00;94306.91;5140229;27;20023;-88
2024/01/02 02:33:30;;;;;;;8.52;2.20;;;;;;;2.01;100.00;94303.13;5149032;27;20348;-88
2024/01/02 02:35:55;;;;;;;8.68;2.00;;;;;;;1.93;100.00;94300.81;5157574;27;20030;-88
2024/01/02 02:38:21;;;;;;;6.68;1.77;;;;;;;2.08;100.00;94295.28;5157350;27;20027;-88
2024/01/02 02:40:46;;;;;;;4.65;1.50;;;;;;;2.18;100.00;94303.34;5140712;27;20026;-88
2024/01/02 02:43:12;;;;;;;4.70;2.42;;;;;;;2.07;100.00;94301.47;5154700;27;20027;-88
2024/01/02 02:45:37;;;;;;;11.43;1.98;;;;;;;2.00;100.00;94298.94;5157718;27;20028;-88
2024/01/02 02:48:03;;;;;;;4.88;1.80;;;;;;;1.64;100.00;94290.16;5157393;27;20086;-88
2024/01/02 02:50:30;;;;;;;10.38;1.73;;;;;;;1.74;100.00;94285.31;5136757;27;20049;-88
2024/01/02 02:52:55;;;;;;;6.30;1.60;;;;;;;1.67;100.00;94287.16;5134224;27;20030;-88
2024/01/02 02:55:21;;;;;;;7.80;1.73;;;;;;;1.83;100.00;94288.41;5157869;27;20031;-87
2024/01/02 02:57:46;;;;;;;7.43;1.55;;;;;;;1.67;100.00;94285.38;5157695;27;20038;-88
2024/01/02 03:00:12;;;;;;;5.15;2.00;;;;;;;1.86;100.00;94275.03;5130989;27;20114;-88
2024/01/02 03:02:38;;;;;;;7.30;1.50;;;;;;;1.95;100.00;94270.38;5156930;27;20363;-88
2024/01/02 03:05:05;;;;;;;2.92;1.27;;;;;;;1.84;100.00;94280.41;5140182;27;20039;-88
2024/01/02 03:07:31;;;;;;;6.22;1.55;;;;;;;1.72;100.00;94273.59;5157154;27;20041;-88
2024/01/02 03:09:56;;;;;;;4.55;1.40;;;;;;;1.64;100.00;94269.50;5147630;27;20494;-88
2024/01/02 03:12:22;;;;;;;6.15;1.65;;;;;;;1.79;100.00;94282.06;5157636;27;20101;-88
2024/01/02 03:14:49;;;;;;;8.02;1.20;;;;;;;1.87;100.00;94281.00;5123579;28;20035;-88
2024/01/02 03:17:20;;;;;;;4.68;1.55;;;;;;;1.90;100.00;94278.78;5136053;27;20070;-88
2024/01/02 03:19:45;;;;;;;3.03;1.20;;;;;;;2.02;100.00;94278.06;5150680;27;20031;-88
2024/01/02 03:22:11;;;;;;;6.47;1.52;;;;;;;2.18;100.00;94281.88;5157318;27;20038;-88
2024/01/02 03:24:36;;;;;;;6.40;1.10;;;;;;;1.74;100.00;94274.16;5158994;27;20027;-89
2024/01/02 03:27:02;;;;;;;5.93;1.23;;;;;;;1.62;100.00;94271.50;5147716;27;20115;-88
2024/01/02 03:29:27;;;;;;;4.63;1.50;;;;;;;1.54;100.00;94277.75;5157023;27;20033;-88
2024/01/02 03:31:53;;;;;;;4.70;1.70;;;;;;;1.51;100.00;94280.75;5156954;27;20034;-88
2024/01/02 03:34:19;;;;;;;5.93;1.83;;;;;;;1.53;100.00;94276.94;5157263;27;20415;-88
2024/01/02 03:36:45;;;;;;;1.42;1.10;;;;;;;1.79;100.00;94284.63;5131843;27;20030;-88
2024/01/02 03:39:10;;;;;;;5.00;0.90;;;;;;;2.03;100.00;94285.63;5115758;28;20115;-88
2024/01/02 03:41:36;;;;;;;5.18;1.10;;;;;;;2.00;100.00;94291.19;5116511;28;20028;-88
2024/01/02 03:44:01;;;;;;;5.38;1.25;;;;;;;2.08;100.00;94295.28;5119903;28;20023;-88
2024/01/02 03:46:27;;;;;;;5.78;1.30;;;;;;;1.95;100.00;94299.59;5127978;27;20071;-88
2024/01/02 03:48:52;;;;;;;3.97;1.02;;;;;;;1.91;100.00;94297.66;5120703;28;20040;-88
2024/01/02 03:51:17;;;;;;;11.55;1.65;;;;;;;2.03;100.00;94280.44;5130467;27;20030;-88
2024/01/02 03:53:43;;;;;;;6.80;1.38;;;;;;;1.98;100.00;94277.69;5126861;27;20029;-88
2024/01/02 03:56:10;;;;;;;3.05;0.93;;;;;;;2.09;100.00;94273.63;5127730;27;20106;-87
2024/01/02 03:58:36;;;;;;;5.95;0.93;;;;;;;2.10;100.00;94264.88;5124931;27;20416;-88
2024/01/02 04:01:01;;;;;;;5.90;1.02;;;;;;;2.08;100.00;94272.03;5119622;28;20028;-88
2024/01/02 04:03:27;;;;;;;4.70;0.98;;;;;;;1.93;100.00;94275.75;5119442;28;20096;-88
2024/01/02 04:05:53;;;;;;;4.63;1.27;;;;;;;1.98;100.00;94267.34;5102592;28;20027;-87
2024/01/02 04:08:18;;;;;;;2.75;1.00;;;;;;;2.14;100.00;94270.38;5127917;27;20020;-88
2024/01/02 04:10:44;;;;;;;5.40;1.73;;;;;;;1.89;100.00;94264.28;5119411;28;20407;-88
2024/01/02 04:13:10;;;;;;;5.50;1.58;;;;;;;1.83;100.00;94265.91;5102589;28;20019;-88
2024/01/02 04:15:36;;;;;;;13.30;1.50;;;;;;;1.93;100.00;94272.41;5119239;28;20031;-88
2024/01/02 04:18:01;;;;;;;3.35;1.20;;;;;;;2.09;100.00;94269.22;5127860;27;20022;-88
2024/01/02 04:20:27;;;;;;;4.25;1.30;;;;;;;2.17;100.00;94275.13;5119315;28;20030;-88
2024/01/02 04:22:54;;;;;;;6.82;1.50;;;;;;;2.01;100.00;94284.25;5102372;28;20023;-88
2024/01/02 04:25:23;;;;;;;5.75;2.22;;;;;;;1.82;100.00;94287.59;5102265;28;20025;-88
2024/01/02 04:27:52;;;;;;;5.00;1.33;;;;;;;1.77;100.00;94279.69;5126991;27;20114;-88
2024/01/02 04:30:17;;;;;;;4.30;1.55;;;;;;;1.83;100.00;94286.59;5120087;27;20072;-88
2024/01/02 04:32:42;;;;;;;4.60;1.58;;;;;;;2.02;100.00;94276.28;5102125;28;20035;-87
2024/01/02 04:35:08;;;;;;;5.70;1.50;;;;;;;2.20;100.00;94287.63;5120028;28;20367;-88
2024/01/02 04:37:33;;;;;;;6.22;1.80;;;;;;;2.36;100.00;94286.22;5102978;27;20032;-88
2024/01/02 04:39:59;;;;;;;6.90;1.60;;;;;;;2.36;100.00;94281.06;5125934;27;20023;-88
2024/01/02 04:42:25;;;;;;;3.70;1.50;;;;;;;2.29;100.00;94275.19;5118658;28;20030;-88
2024/01/02 04:44:50;;;;;;;5.95;1.60;;;;;;;2.08;100.00;94280.56;5102276;28;20023;-88
2024/01/02 04:47:16;;;;;;;4.63;1.55;;;;;;;2.06;100.00;94274.03;5118457;28;20031;-88
2024/01/02 04:49:41;;;;;;;6.07;1.02;;;;;;;1.89;100.00;94273.84;5116751;27;20443;-88
2024/01/02 04:52:06;;;;;;;2.90;1.40;;;;;;;1.83;100.00;94271.09;5138876;27;20058;-87
2024/01/02 04:54:32;;;;;;;5.57;1.33;;;;;;;2.11;100.00;94264.63;5121574;27;20030;-88
2024/01/02 04:56:58;;;;;;;5.00;1.60;;;;;;;2.17;100.00;94259.63;5121967;27;20026;-88
2024/01/02 04:59:23;;;;;;;2.95;1.20;;;;;;;2.00;100.00;94267.94;5137794;27;20046;-88
2024/01/02 05:01:49;;;;;;;6.72;1.85;;;;;;;2.18;100.00;94267.13;5118384;28;20027;-88
2024/01/02 05:04:15;;;;;;;5.30;1.70;;;;;;;1.96;100.00;94275.34;5101488;28;20027;-88
2024/01/02 05:06:41;;;;;;;7.78;1.10;;;;;;;2.00;100.00;94269.75;5118173;28;20543;-87
2024/01/02 05:09:08;;;;;;;2.30;1.10;;;;;;;2.22;100.00;94270.09;5121528;27;20031;-87
2024/01/02 05:11:37;;;;;;;5.15;1.05;;;;;;;2.27;100.00;94270.22;5130443;27;20033;-87
2024/01/02 05:14:03;;;;;;;8.65;1.15;;;;;;;2.05;100.00;94268.09;5101311;28;20436;-87
2024/01/02 05:16:28;;;;;;;2.33;0.90;;;;;;;2.03;100.00;94264.13;5100928;28;20030;-87
2024/01/02 05:18:54;;;;;;;6.47;0.98;;;;;;;2.10;100.00;94257.88;5117831;28;20019;-88
2024/01/02 05:21:19;;;;;;;3.80;1.10;;;;;;;2.26;100.00;94248.75;5126426;27;20340;-87
2024/01/02 05:23:45;;;;;;;3.20;0.80;;;;;;;1.98;100.00;94252.66;5117826;28;20019;-88
2024/01/02 05:26:10;;;;;;;5.00;1.15;;;;;;;1.91;100.00;94251.94;5119081;28;20336;-88
2024/01/02 05:28:36;;;;;;;13.40;2.28;;;;;;;1.72;100.00;94235.63;5118816;28;20026;-87
2024/01/02 05:31:01;;;;;;;6.47;0.98;;;;;;;1.86;100.00;94238.06;5126265;27;20020;-87
2024/01/02 05:33:26;;;;;;;2.67;0.88;;;;;;;1.76;100.00;94231.63;5118881;28;20030;-87
2024/01/02 05:35:52;;;;;;;5.88;1.27;;;;;;;1.87;100.00;94247.44;5118855;28;20034;-87
2024/01/02 05:38:17;;;;;;;4.95;1.00;;;;;;;1.77;100.00;94255.66;5100459;28;20034;-87
2024/01/02 05:40:43;;;;;;;6.68;0.82;;;;;;;1.63;100.00;94250.63;5123548;27;20023;-88
2024/01/02 05:43:09;;;;;;;5.78;1.10;;;;;;;1.95;100.00;94252.28;5120220;27;20375;-87
2024/01/02 05:45:36;;;;;;;2.25;0.95;;;;;;;1.77;100.00;94256.47;5117440;28;20106;-88
2024/01/02 05:48:02;;;;;;;7.82;1.25;;;;;;;1.57;100.00;94254.06;5116970;28;20118;-88
2024/01/02 05:50:27;;;;;;;6.18;1.13;;;;;;;1.67;100.00;94263.91;5118681;28;20020;-88
2024/01/02 05:52:53;;;;;;;10.52;0.88;;;;;;;1.67;100.00;94256.16;5125660;27;20032;-87
2024/01/02 05:55:18;;;;;;;6.30;1.45;;;;;;;1.75;100.00;94263.63;5117350;28;20447;-88
2024/01/02 05:57:44;;;;;;;3.97;1.00;;;;;;;1.98;100.00;94265.56;5117098;28;20019;-88
2024/01/02 06:00:10;;;;;;;5.55;0.85;;;;;;;2.18;100.00;94266.38;5117422;28;20030;-88
2024/01/02 06:02:35;;;;;;;2.22;1.02;;;;;;;2.02;100.00;94278.88;5132571;27;20069;-87
2024/01/02 06:05:01;;;;;;;4.88;0.90;;;;;;;2.07;100.00;94278.19;5138058;27;20015;-88
2024/01/02 06:07:27;;;;;;;5.55;1.10;;;;;;;2.28;100.00;94276.97;5128682;27;20377;-87
2024/01/02 06:09:52;;;;;;;6.28;0.93;;;;;;;2.42;100.00;94277.63;5138345;27;20063;-87
2024/01/02 06:12:18;;;;;;;12.48;1.10;;;;;;;2.16;100.00;94286.47;5120133;27;20023;-87
2024/01/02 06:14:43;;;;;;;4.40;0.70;;;;;;;2.08;100.00;94285.75;5100128;28;20029;-88
2024/01/02 06:17:09;;;;;;;4.78;0.80;;;;;;;2.31;100.00;94293.84;5116543;28;20027;-87
2024/01/02 06:19:34;;;;;;;5.13;0.90;;;;;;;2.47;100.00;94284.72;5119275;28;20040;-87
2024/01/02 06:21:59;;;;;;;4.10;0.90;;;;;;;2.38;100.00;94292.75;5138293;27;20019;-87
2024/01/02 06:24:25;;;;;;;4.30;0.90;;;;;;;2.33;100.00;94294.41;5115330;27;20435;-88
2024/01/02 06:26:50;;;;;;;5.75;0.98;;;;;;;2.34;100.00;94291.63;5132535;27;20336;-87
2024/01/02 06:29:16;;;;;;;2.78;1.00;;;;;;;2.49;100.00;94283.47;5116497;28;20071;-87
2024/01/02 06:31:41;;;;;;;6.65;0.98;;;;;;;2.60;100.00;94281.97;5116514;28;20023;-87
2024/01/02 06:34:08;;;;;;;7.88;1.10;;;;;;;2.58;100.00;94280.59;5111702;27;20023;-88
2024/01/02 06:36:34;;;;;;;7.38;1.30;;;;;;;2.59;100.00;94282.97;5116459;28;20019;-89
2024/01/02 06:38:59;;;;;;;12.43;2.72;;;;;;;2.47;100.00;94285.50;5099584;28;20064;-88
2024/01/02 06:41:25;;;;;;;8.82;3.13;;;;;;;2.42;100.00;94287.16;5117595;28;20031;-88
2024/01/02 06:43:50;;;;;;;7.65;1.50;;;;;;;2.65;100.00;94299.41;5120667;27;20027;-88
2024/01/02 06:46:15;;;;;;;7.95;1.35;;;;;;;2.38;100.00;94294.56;5157493;27;20018;-88
2024/01/02 06:48:43;;;;;;;5.60;1.20;;;;;;;2.49;100.00;94295.63;5140300;27;20023;-88
2024/01/02 06:51:09;;;;;;;9.48;1.85;;;;;;;2.48;100.00;94287.06;5157563;27;20034;-88
2024/01/02 06:53:34;;;;;;;8.73;2.40;;;;;;;2.48;100.00;94286.31;5130639;27;20019;-87
2024/01/02 06:55:59;;;;;;;8.30;2.88;;;;;;;2.51;100.00;94285.84;5140165;27;20316;-87
2024/01/02 06:58:25;;;;;;;5.00;2.03;;;;;;;2.73;100.00;94283.59;5157682;27;20034;-88
2024/01/02 07:00:51;;;;;;;5.63;1.70;;;;;;;2.71;100.00;94287.38;5152190;27;20095;-87
2024/01/02 07:03:17;;;;;;;3.25;1.17;;;;;;;2.83;100.00;94285.63;5142087;27;20027;-88
2024/01/02 07:05:43;;;;;;;4.72;1.60;;;;;;;2.86;100.00;94282.59;5128485;27;20027;-87
2024/01/02 07:08:08;;;;;;;4.40;1.05;;;;;;;2.97;100.00;94291.44;5119898;28;20030;-88
2024/01/02 07:10:34;;;;;;;6.57;1.30;;;;;;;3.06;100.00;94286.72;5128181;27;20332;-87
2024/01/02 07:12:59;;;;;;;2.58;0.98;;;;;;;2.93;100.00;94288.50;5136724;28;20068;-88
2024/01/02 07:15:25;;;;;;;2.95;1.10;;;;;;;3.22;100.00;94296.44;5137769;27;20385;-88
2024/01/02 07:17:50;;;;;;;3.45;1.10;;;;;;;3.41;100.00;94301.53;5139255;27;20034;-88
2024/01/02 07:20:15;;;;;;;3.15;0.65;;;;;;;3.56;100.00;94295.13;5153258;27;20420;-88
2024/01/02 07:22:41;;;;;;;7.97;1.20;;;;;;;3.55;100.00;94299.53;5161723;27;20018;-87
2024/01/02 07:25:07;;;;;;;4.35;1.30;;;;;;;3.54;100.00;94296.13;5161585;27;20109;-88
2024/01/02 07:27:32;;;;;;;12.05;1.67;;;;;;;3.79;100.00;94297.72;5125746;27;20478;-88
2024/01/02 07:29:58;;;;;;;2.25;1.00;;;;;;;3.90;100.00;94300.53;5141634;27;20023;-88
2024/01/02 07:32:23;;;;;;;5.00;0.98;;;;;;;3.79;100.00;94299.50;5140659;27;20030;-88
2024/01/02 07:34:49;;;;;;;2.13;0.80;;;;;;;3.89;100.00;94301.56;5141771;27;20026;-88
2024/01/02 07:37:14;;;;;;;4.75;1.15;;;;;;;3.98;100.00;94305.38;5145621;27;20343;-88
2024/01/02 07:39:40;;;;;;;7.30;1.30;;;;;;;3.96;100.00;94307.41;5144517;27;20026;-87
2024/01/02 07:42:08;;;;;;;3.65;1.25;;;;;;;4.19;100.00;94311.00;5161247;27;20042;-88
2024/01/02 07:44:33;;;;;;;3.03;0.82;;;;;;;4.30;100.00;94304.97;5144410;27;20027;-88
2024/01/02 07:46:59;;;;;;;2.50;1.00;;;;;;;4.40;100.00;94304.41;5147361;27;20023;-88
2024/01/02 07:49:25;;;;;;;6.03;1.20;;;;;;;4.76;100.00;94317.28;5140435;27;20034;-88
2024/01/02 07:51:51;;;;;;;3.03;0.70;;;;;;;4.74;100.00;94322.69;5140329;27;20117;-88
2024/01/02 07:54:16;;;;;;;6.22;1.00;;;;;;;4.93;100.00;94325.09;5138551;27;20058;-87
2024/01/02 07:56:42;;;;;;;2.35;0.77;;;;;;;5.26;100.00;94325.41;5119636;28;20031;-88
2024/01/02 07:59:07;;;;;;;1.77;0.80;;;;;;;5.52;100.00;94324.00;5119664;28;20031;-87
2024/01/02 08:01:33;;;;;;;3.28;0.77;;;;;;;5.54;100.00;94313.38;5119681;28;20031;-88
2024/01/02 08:03:58;;;;;;;3.10;0.70;;;;;;;5.52;100.00;94316.22;5128178;27;20027;-88
2024/01/02 08:06:23;;;;;;;2.20;0.90;;;;;;;5.57;100.00;94307.72;5139956;27;20095;-88
2024/01/02 08:08:50;;;;;;;2.33;0.80;;;;;;;5.55;100.00;94310.56;5139865;27;20138;-88
2024/01/02 08:11:15;;;;;;;5.85;0.82;;;;;;;5.63;100.00;94304.19;5123136;27;20027;-87
2024/01/02 08:13:40;;;;;;;6.13;1.17;;;;;;;5.71;100.00;94308.97;5122826;27;20023;-87
2024/01/02 08:16:06;;;;;;;7.88;1.83;;;;;;;5.46;100.00;94306.78;5141079;27;20027;-89
2024/01/02 08:18:40;;;;;;;5.35;0.90;;;;;;;5.25;100.00;94309.06;5141272;27;20087;-88
2024/01/02 08:21:07;;;;;;;3.17;1.05;;;;;;;5.45;100.00;94305.19;5143842;27;20022;-88
2024/01/02 08:23:33;;;;;;;4.50;0.85;;;;;;;5.56;100.00;94296.53;5150396;27;20066;-86
2024/01/02 08:25:58;;;;;;;4.75;1.17;;;;;;;5.62;100.00;94287.00;5120029;28;20442;-86
2024/01/02 08:28:24;;;;;;;8.35;1.20;;;;;;;5.37;100.00;94298.56;5118601;28;20100;-90
2024/01/02 08:30:49;;;;;;;6.15;1.50;;;;;;;5.43;100.00;94300.22;5119178;28;20039;-87
2024/01/02 08:33:15;;;;;;;4.43;0.95;;;;;;;5.57;100.00;94294.72;5120099;28;20436;-87
2024/01/02 08:35:40;;;;;;;4.25;1.20;;;;;;;5.92;100.00;94298.88;5138864;27;20359;-87
2024/01/02 08:38:06;;;;;;;5.15;1.20;;;;;;;6.26;100.00;94291.00;5136656;27;20051;-87
2024/01/02 08:40:31;;;;;;;4.07;0.95;;;;;;;6.11;100.00;94286.41;5102003;28;20318;-87
2024/01/02 08:42:57;;;;;;;3.17;0.60;;;;;;;5.99;100.00;94280.50;5102063;28;20028;-87
2024/01/02 08:45:22;;;;;;;3.47;0.70;;;;;;;6.24;100.00;94280.06;5138889;27;20022;-87
2024/01/02 08:47:48;;;;;;;31.40;4.82;;;;;;;6.54;100.00;94280.66;5139493;27;20397;-87
2024/01/02 08:50:13;;;;;;;24.15;4.43;;;;;;;6.74;100.00;94280.88;5138888;27;20110;-87
2024/01/02 08:52:39;;;;;;;4.57;1.35;;;;;;;6.86;100.00;94259.91;5140271;27;20332;-87
2024/01/02 08:55:05;;;;;;;4.55;1.17;;;;;;;6.76;100.00;94262.41;5122162;27;20029;-87
2024/01/02 08:57:31;;;;;;;10.57;2.28;;;;;;;7.00;100.00;94256.91;5122114;27;20071;-87
2024/01/02 08:59:57;;;;;;;5.85;1.83;;;;;;;6.65;100.00;94254.50;5109310;28;20020;-87
2024/01/02 09:02:22;;;;;;;5.78;1.48;;;;;;;6.93;100.00;94255.28;5134193;27;20125;-87
2024/01/02 09:04:48;;;;;;;5.32;1.52;;;;;;;6.96;100.00;94250.63;5139143;27;20084;-87
2024/01/02 09:07:13;;;;;;;5.45;1.15;;;;;;;7.05;100.00;94262.94;5122115;27;20029;-87
2024/01/02 09:09:38;;;;;;;9.55;1.20;;;;;;;7.07;100.00;94268.69;5150008;27;20062;-87
2024/01/02 09:12:06;;;;;;;3.13;1.10;;;;;;;7.11;100.00;94263.00;5160687;27;20026;-87
2024/01/02 09:14:32;;;;;;;3.42;0.93;;;;;;;7.18;96.13;94258.34;5142297;27;20431;-87
2024/01/02 09:16:58;;;;;;;2.92;0.90;;;;;;;6.97;100.00;94255.59;5122191;27;20024;-87
2024/01/02 09:19:24;;;;;;;2.85;0.80;;;;;;;7.16;100.00;94256.00;5118154;28;20078;-87
2024/01/02 09:21:49;;;;;;;5.72;1.25;;;;;;;7.42;100.00;94248.38;5118135;28;20027;-87
2024/01/02 09:24:16;;;;;;;3.65;1.38;;;;;;;7.62;100.00;94247.72;5121958;27;20023;-87
2024/01/02 09:26:44;;;;;;;3.97;1.13;;;;;;;7.60;100.00;94254.22;5121342;27;20031;-87
2024/01/02 09:29:10;;;;;;;5.82;1.35;;;;;;;7.60;100.00;94251.63;5123732;27;20032;-88
2024/01/02 09:31:35;;;;;;;3.78;1.15;;;;;;;7.54;100.00;94243.00;5101071;28;20027;-88
2024/01/02 09:34:01;;;;;;;3.75;1.05;;;;;;;7.34;100.00;94254.84;5117793;28;20339;-89
2024/01/02 09:36:29;;;;;;;10.13;2.13;;;;;;;7.10;100.00;94253.59;5118323;28;20027;-88
2024/01/02 09:38:54;;;;;;;5.88;1.55;;;;;;;7.38;100.00;94257.75;5101416;28;20027;-88
2024/01/02 09:41:39;;;;;;;2.88;1.15;;;;;;;7.77;100.00;94248.88;5117434;28;20035;-88
2024/01/02 09:44:23;;;;;;;7.22;1.40;;;;;;;7.43;100.00;94254.38;5117574;28;20507;-87
2024/01/02 09:46:54;;;;;;;3.88;1.50;;;;;;;7.38;100.00;94262.94;5118339;28;20038;-87
2024/01/02 09:49:24;;;;;;;6.30;1.23;;;;;;;7.66;100.00;94258.44;5135104;27;20035;-87
2024/01/02 09:52:13;;;;;;;6.25;1.25;;;;;;;7.66;100.00;94258.44;5139833;27;20324;-87
2024/01/02 09:54:50;;;;;;;4.75;1.45;;;;;;;7.89;100.00;94264.31;5121146;27;20042;-87
2024/01/02 09:57:39;;;;;;;6.57;1.58;;;;;;;7.84;100.00;94270.31;5134765;27;20428;-87
2024/01/02 10:00:08;;;;;;;2.17;0.90;;;;;;;7.84;100.00;94280.75;5138826;27;20027;-87
2024/01/02 10:02:45;;;;;;;7.57;1.35;;;;;;;7.82;100.00;94284.63;5137656;27;20360;-87
2024/01/02 10:05:15;;;;;;;3.88;1.10;;;;;;;7.72;100.00;94286.13;5136556;27;20467;-87
2024/01/02 10:08:11;;;;;;;4.78;1.10;;;;;;;7.68;100.00;94284.28;5148570;27;20026;-87
2024/01/02 10:11:15;;;;;;;4.72;1.50;;;;;;;7.61;100.00;94279.28;5150883;27;20039;-86
2024/01/02 10:14:11;;;;;;;5.80;1.83;;;;;;;7.09;100.00;94276.25;5158315;27;20483;-87
2024/01/02 10:16:39;;;;;;;7.05;3.03;;;;;;;6.70;100.00;94281.59;5150749;27;20034;-87
2024/01/02 10:19:22;;;;;;;30.80;12.38;;;;;;;6.62;100.00;94278.41;5120182;27;20348;-88
2024/01/02 10:22:04;;;;;;;33.50;12.38;;;;;;;6.74;100.00;94280.06;5117827;28;20428;-87
2024/01/02 10:24:39;;;;;;;10.73;4.82;;;;;;;6.72;100.00;94282.16;5116966;28;20030;-87
2024/01/02 10:27:15;;;;;;;540.55;214.68;;;;;;;6.78;100.00;94268.94;5123315;27;20109;-87
2024/01/02 10:29:46;;;;;;;526.20;210.52;;;;;;;6.87;100.00;94274.47;5155462;27;20031;-87
2024/01/02 10:32:12;;;;;;;254.98;91.47;;;;;;;7.01;100.00;94263.66;5157860;27;20309;-88
2024/01/02 10:35:20;;;;;;;485.70;181.07;;;;;;;7.06;100.00;94274.16;5140202;27;20037;-87
2024/01/02 10:38:10;;;;;;;500.10;178.10;;;;;;;7.30;100.00;94273.81;5119967;27;20130;-88
2024/01/02 10:40:41;;;;;;;1177.63;486.13;;;;;;;7.48;100.00;94260.44;5116511;28;20019;-87
2024/01/02 10:43:22;;;;;;;318.88;103.45;;;;;;;8.10;100.00;94262.59;5116501;28;20053;-88
2024/01/02 10:46:33;;;;;;;375.30;140.60;;;;;;;8.26;100.00;94266.06;5123453;27;20035;-88
2024/01/02 10:49:04;;;;;;;59.40;30.83;;;;;;;8.42;100.00;94251.28;5037947;28;20060;-88
2024/01/02 10:51:43;;;;;;;9.40;3.83;;;;;;;8.61;100.00;94237.75;5058831;28;20024;-87
2024/01/02 10:54:46;;;;;;;7.72;3.85;;;;;;;8.85;100.00;94230.22;5114914;27;20045;-87
2024/01/02 10:57:29;;;;;;;4.65;1.92;;;;;;;8.77;100.00;94230.75;5074808;28;20039;-87
2024/01/02 11:00:04;;;;;;;8.48;3.20;;;;;;;8.78;100.00;94232.31;5133066;27;20079;-87
2024/01/02 11:02:46;;;;;;;1.67;1.40;;;;;;;8.55;100.00;94230.97;5122637;27;20027;-86
2024/01/02 11:05:34;;;;;;;4.35;1.48;;;;;;;8.57;100.00;94228.88;5124338;27;20023;-86
2024/01/02 11:08:14;;;;;;;3.95;2.00;;;;;;;8.35;100.00;94227.22;5128136;27;20439;-87
2024/01/02 11:10:53;;;;;;;5.55;1.83;;;;;;;8.22;100.00;94218.03;5111807;28;20332;-87
2024/01/02 11:13:19;;;;;;;12.90;5.20;;;;;;;8.12;100.00;94220.59;5119507;28;20057;-86
2024/01/02 11:15:47;;;;;;;10.65;4.45;;;;;;;8.14;100.00;94215.91;5136459;28;20031;-87
2024/01/02 11:18:14;;;;;;;8.20;3.58;;;;;;;8.12;100.00;94215.38;5126947;27;20079;-86
2024/01/02 11:20:55;;;;;;;4.47;1.92;;;;;;;8.10;100.00;94226.06;5116172;28;20032;-88
2024/01/02 11:23:24;;;;;;;8.63;2.15;;;;;;;7.92;100.00;94220.25;5099088;28;20127;-88
2024/01/02 11:26:01;;;;;;;5.32;1.67;;;;;;;7.72;100.00;94204.50;5099192;28;20327;-87
2024/01/02 11:28:27;;;;;;;6.80;1.92;;;;;;;7.73;100.00;94206.09;5145774;27;20039;-87
2024/01/02 11:30:53;;;;;;;8.27;3.05;;;;;;;7.75;100.00;94206.59;5145069;27;20035;-86
2024/01/02 11:33:53;;;;;;;26.83;9.40;;;;;;;7.81;100.00;94202.22;5136202;28;20084;-86